createdAt,value
2019-03-28T00:00:35.430Z,10.27
2019-03-28T00:03:05.778Z,9.30
2019-03-28T00:05:36.090Z,5.77
2019-03-28T00:08:07.006Z,7.33
2019-03-28T00:10:37.351Z,9.10
2019-03-28T00:13:07.838Z,10.87
2019-03-28T00:15:38.381Z,14.33
2019-03-28T00:18:08.740Z,8.53
2019-03-28T00:20:39.072Z,6.83
2019-03-28T00:23:22.281Z,10.50
2019-03-28T00:25:52.751Z,8.27
2019-03-28T00:28:23.147Z,8.10
2019-03-28T00:30:53.516Z,7.63
2019-03-28T00:33:23.951Z,6.83
2019-03-28T00:35:54.339Z,8.47
2019-03-28T00:38:25.140Z,8.27
2019-03-28T00:40:55.636Z,6.53
2019-03-28T00:43:26.026Z,10.97
2019-03-28T00:45:56.427Z,10.70
2019-03-28T00:48:27.167Z,7.23
2019-03-28T00:50:57.677Z,7.43
2019-03-28T00:53:28.091Z,11.57
2019-03-28T00:55:58.454Z,7.57
2019-03-28T00:58:28.820Z,9.73
2019-03-28T01:00:59.083Z,9.33
2019-03-28T01:03:29.428Z,10.23
2019-03-28T01:05:59.912Z,9.73
2019-03-28T01:08:30.361Z,8.83
2019-03-28T01:11:00.846Z,17.77
2019-03-28T01:13:31.283Z,9.40
2019-03-28T01:16:01.650Z,12.87
2019-03-28T01:18:32.002Z,16.83
2019-03-28T01:21:02.423Z,22.03
2019-03-28T01:23:32.989Z,11.67
2019-03-28T01:26:04.297Z,20.10
2019-03-28T01:28:34.682Z,11.10
2019-03-28T01:31:05.052Z,8.73
2019-03-28T01:33:35.564Z,12.97
2019-03-28T01:36:06.019Z,9.60
2019-03-28T01:38:36.424Z,13.77
2019-03-28T01:41:06.835Z,13.20
2019-03-28T01:43:37.289Z,23.00
2019-03-28T01:46:07.682Z,12.80
2019-03-28T01:48:38.193Z,14.33
2019-03-28T01:51:08.578Z,16.90
2019-03-28T01:53:39.061Z,22.17
2019-03-28T01:56:09.771Z,14.77
2019-03-28T01:58:40.124Z,16.27
2019-03-28T02:01:10.650Z,16.73
2019-03-28T02:03:41.039Z,16.87
2019-03-28T02:06:11.931Z,10.17
2019-03-28T02:08:42.357Z,13.53
2019-03-28T02:11:12.755Z,13.03
2019-03-28T02:13:43.036Z,19.97
2019-03-28T02:16:13.434Z,21.47
2019-03-28T02:18:43.759Z,12.83
2019-03-28T02:21:14.229Z,12.83
2019-03-28T02:23:44.634Z,15.07
2019-03-28T02:26:14.992Z,9.80
2019-03-28T02:28:45.577Z,15.70
2019-03-28T02:31:16.721Z,12.93
2019-03-28T02:33:47.621Z,12.40
2019-03-28T02:36:18.098Z,13.33
2019-03-28T02:38:48.603Z,15.60
2019-03-28T02:41:18.991Z,14.03
2019-03-28T02:43:49.474Z,12.10
2019-03-28T02:46:19.911Z,10.77
2019-03-28T02:48:51.413Z,10.70
2019-03-28T02:51:21.956Z,12.63
2019-03-28T02:53:52.432Z,12.73
2019-03-28T02:56:22.907Z,21.37
2019-03-28T02:58:53.272Z,9.93
2019-03-28T03:01:23.711Z,18.80
2019-03-28T03:03:54.204Z,12.00
2019-03-28T03:06:24.725Z,14.50
2019-03-28T03:08:55.187Z,10.20
2019-03-28T03:11:25.558Z,12.80
2019-03-28T03:13:56.015Z,18.67
2019-03-28T03:16:26.569Z,11.50
2019-03-28T03:18:56.932Z,11.50
2019-03-28T03:21:27.213Z,13.20
2019-03-28T03:23:57.663Z,10.77
2019-03-28T03:26:28.045Z,10.30
2019-03-28T03:28:58.419Z,12.97
2019-03-28T03:31:28.724Z,15.97
2019-03-28T03:33:59.102Z,13.60
2019-03-28T03:36:29.498Z,11.40
2019-03-28T03:38:59.914Z,12.73
2019-03-28T03:41:30.276Z,12.50
2019-03-28T03:44:02.603Z,9.50
2019-03-28T03:46:32.960Z,10.57
2019-03-28T03:49:03.391Z,18.40
2019-03-28T03:51:34.135Z,12.03
2019-03-28T03:54:06.659Z,20.97
2019-03-28T03:56:37.047Z,17.27
2019-03-28T03:59:07.504Z,11.30
2019-03-28T04:01:37.915Z,11.03
2019-03-28T04:04:08.334Z,16.33
2019-03-28T04:06:38.742Z,15.77
2019-03-28T04:09:10.009Z,11.67
2019-03-28T04:11:40.321Z,11.83
2019-03-28T04:14:10.736Z,11.77
2019-03-28T04:16:41.083Z,16.20
2019-03-28T04:19:11.405Z,14.67
2019-03-28T04:21:41.781Z,11.03
2019-03-28T04:24:12.131Z,11.50
2019-03-28T04:26:42.913Z,10.73
2019-03-28T04:29:13.803Z,10.47
2019-03-28T04:31:44.153Z,13.37
2019-03-28T04:34:14.528Z,11.17
2019-03-28T04:36:44.912Z,11.53
2019-03-28T04:39:15.389Z,11.10
2019-03-28T04:41:46.430Z,10.60
2019-03-28T04:44:17.610Z,9.57
2019-03-28T04:46:48.191Z,12.57
2019-03-28T04:49:18.659Z,11.20
2019-03-28T04:51:49.206Z,11.67
2019-03-28T04:54:19.573Z,10.87
2019-03-28T04:56:50.013Z,15.07
2019-03-28T04:59:20.440Z,12.80
2019-03-28T05:02:02.566Z,11.00
2019-03-28T05:04:23.751Z,10.90
2019-03-28T05:06:54.160Z,14.23
2019-03-28T05:09:25.301Z,14.27
2019-03-28T05:11:55.713Z,14.13
2019-03-28T05:14:26.121Z,11.30
2019-03-28T05:16:56.627Z,16.60
2019-03-28T05:19:27.098Z,10.73
2019-03-28T05:21:57.493Z,15.53
2019-03-28T05:24:27.806Z,12.67
2019-03-28T05:26:58.174Z,12.03
2019-03-28T05:29:28.566Z,11.63
2019-03-28T05:31:58.927Z,13.33
2019-03-28T05:34:29.254Z,12.23
2019-03-28T05:36:59.651Z,14.10
2019-03-28T05:39:30.002Z,11.93
2019-03-28T05:42:00.414Z,12.60
2019-03-28T05:44:30.860Z,11.00
2019-03-28T05:47:01.295Z,14.33
2019-03-28T05:49:31.717Z,14.30
2019-03-28T05:52:02.149Z,22.60
2019-03-28T05:54:32.605Z,11.40
2019-03-28T05:57:03.169Z,12.77
2019-03-28T05:59:34.690Z,10.97
2019-03-28T06:02:05.176Z,15.33
2019-03-28T06:04:35.554Z,12.23
2019-03-28T06:07:08.676Z,12.27
2019-03-28T06:09:40.224Z,14.27
2019-03-28T06:12:10.068Z,14.50
2019-03-28T06:14:40.486Z,18.17
2019-03-28T06:17:11.027Z,12.90
2019-03-28T06:19:41.594Z,24.80
2019-03-28T06:22:11.985Z,24.53
2019-03-28T06:24:42.388Z,26.73
2019-03-28T06:27:12.734Z,14.03
2019-03-28T06:29:43.118Z,12.13
2019-03-28T06:32:13.629Z,11.90
2019-03-28T06:34:43.969Z,14.70
2019-03-28T06:37:14.277Z,26.30
2019-03-28T06:39:44.609Z,35.37
2019-03-28T06:42:15.044Z,28.23
2019-03-28T06:44:45.484Z,20.73
2019-03-28T06:47:15.799Z,12.23
2019-03-28T06:49:47.345Z,14.80
2019-03-28T06:52:17.737Z,14.53
2019-03-28T06:54:48.636Z,13.23
2019-03-28T06:57:19.085Z,13.87
2019-03-28T06:59:49.437Z,15.70
2019-03-28T07:02:21.869Z,28.40
2019-03-28T07:04:51.826Z,23.37
2019-03-28T07:07:22.132Z,21.30
2019-03-28T07:09:52.546Z,24.33
2019-03-28T07:12:22.956Z,15.60
2019-03-28T07:14:54.285Z,12.17
2019-03-28T07:17:24.722Z,23.73
2019-03-28T07:20:09.295Z,19.43
2019-03-28T07:22:39.935Z,13.37
2019-03-28T07:25:10.351Z,24.83
2019-03-28T07:27:40.755Z,24.27
2019-03-28T07:30:12.114Z,26.83
2019-03-28T07:32:43.602Z,16.50
2019-03-28T07:35:14.355Z,27.33
2019-03-28T07:37:44.821Z,24.30
2019-03-28T07:40:15.191Z,17.37
2019-03-28T07:42:46.463Z,22.37
2019-03-28T07:45:17.142Z,24.83
2019-03-28T07:47:47.537Z,12.47
2019-03-28T07:50:18.012Z,13.37
2019-03-28T07:52:48.349Z,13.10
2019-03-28T07:55:18.665Z,28.90
2019-03-28T07:57:49.022Z,25.90
2019-03-28T08:00:19.459Z,31.07
2019-03-28T08:02:49.840Z,23.60
2019-03-28T08:05:20.263Z,25.03
2019-03-28T08:07:50.556Z,29.43
2019-03-28T08:10:22.082Z,18.20
2019-03-28T08:12:52.473Z,29.87
2019-03-28T08:15:22.945Z,23.80
2019-03-28T08:17:53.314Z,18.87
2019-03-28T08:20:23.800Z,24.20
2019-03-28T08:22:54.115Z,22.47
2019-03-28T08:25:24.492Z,27.75
2019-03-28T08:27:57.567Z,24.57
2019-03-28T08:30:36.830Z,21.27
2019-03-28T08:33:07.722Z,18.97
2019-03-28T08:35:38.092Z,27.50
2019-03-28T08:38:10.150Z,28.27
2019-03-28T08:40:41.216Z,31.33
2019-03-28T08:43:12.807Z,30.03
2019-03-28T08:45:43.282Z,26.00
2019-03-28T08:48:13.896Z,18.67
2019-03-28T08:50:44.276Z,33.70
2019-03-28T08:53:15.827Z,28.80
2019-03-28T08:55:46.289Z,30.37
2019-03-28T08:58:16.901Z,26.13
2019-03-28T09:00:52.288Z,28.63
2019-03-28T09:03:19.291Z,36.10
2019-03-28T09:05:49.599Z,33.60
2019-03-28T09:08:19.998Z,27.70
2019-03-28T09:10:50.370Z,30.17
2019-03-28T09:13:20.708Z,25.83
2019-03-28T09:15:51.111Z,23.70
2019-03-28T09:18:21.449Z,33.90
2019-03-28T09:20:51.862Z,25.93
2019-03-28T09:23:22.355Z,30.27
2019-03-28T09:25:52.742Z,27.73
2019-03-28T09:28:23.141Z,22.30
2019-03-28T09:30:53.589Z,26.60
2019-03-28T09:33:24.105Z,27.07
2019-03-28T09:35:55.591Z,29.57
2019-03-28T09:38:25.973Z,24.17
2019-03-28T09:40:56.774Z,23.80
2019-03-28T09:43:27.139Z,22.57
2019-03-28T09:46:00.203Z,23.20
2019-03-28T09:48:29.591Z,25.13
2019-03-28T09:51:00.414Z,20.17
2019-03-28T09:53:31.088Z,22.03
2019-03-28T09:56:01.438Z,22.23
2019-03-28T09:58:31.992Z,21.90
2019-03-28T10:01:03.442Z,25.57
2019-03-28T10:03:33.860Z,20.90
2019-03-28T10:06:04.636Z,18.98
2019-03-28T10:08:35.073Z,20.73
2019-03-28T10:11:05.564Z,21.67
2019-03-28T10:13:35.951Z,20.93
2019-03-28T10:16:06.253Z,17.07
2019-03-28T10:18:36.713Z,17.47
2019-03-28T10:21:07.098Z,17.63
2019-03-28T10:23:40.039Z,19.50
2019-03-28T10:26:10.428Z,17.53
2019-03-28T10:28:40.792Z,17.37
2019-03-28T10:31:16.614Z,13.77
2019-03-28T10:33:43.219Z,16.30
2019-03-28T10:36:13.976Z,19.50
2019-03-28T10:38:44.291Z,18.47
2019-03-28T10:41:14.673Z,19.97
2019-03-28T10:43:45.474Z,14.90
2019-03-28T10:46:17.530Z,15.83
2019-03-28T10:48:47.899Z,15.17
2019-03-28T10:51:18.281Z,14.07
2019-03-28T10:53:48.631Z,13.30
2019-03-28T10:56:23.352Z,13.60
2019-03-28T10:58:51.149Z,13.37
2019-03-28T11:01:36.167Z,13.73
2019-03-28T11:03:53.525Z,12.53
2019-03-28T11:06:23.807Z,16.57
2019-03-28T11:08:54.254Z,12.67
2019-03-28T11:11:24.732Z,14.63
2019-03-28T11:13:55.144Z,14.73
2019-03-28T11:16:25.609Z,11.70
2019-03-28T11:18:56.011Z,11.87
2019-03-28T11:21:27.455Z,11.13
2019-03-28T11:23:58.596Z,11.63
2019-03-28T11:26:29.170Z,11.53
2019-03-28T11:29:01.029Z,10.97
2019-03-28T11:31:45.299Z,10.00
2019-03-28T11:34:04.496Z,11.53
2019-03-28T11:36:34.866Z,13.57
2019-03-28T11:39:06.982Z,11.23
2019-03-28T11:41:37.445Z,10.63
2019-03-28T11:44:07.758Z,11.20
2019-03-28T11:46:38.059Z,11.50
2019-03-28T11:49:08.387Z,9.83
2019-03-28T11:51:38.689Z,7.33
2019-03-28T11:54:09.065Z,9.57
2019-03-28T11:56:39.480Z,7.45
2019-03-28T11:59:09.869Z,7.53
2019-03-28T12:01:40.296Z,9.37
2019-03-28T12:04:10.745Z,8.93
2019-03-28T12:06:41.034Z,8.60
2019-03-28T12:09:12.228Z,6.27
2019-03-28T12:11:42.701Z,10.70
2019-03-28T12:14:13.077Z,8.80
2019-03-28T12:16:43.371Z,6.17
2019-03-28T12:19:13.813Z,5.27
2019-03-28T12:21:44.748Z,8.20
2019-03-28T12:24:15.572Z,5.33
2019-03-28T12:26:45.975Z,5.73
2019-03-28T12:29:16.664Z,5.60
2019-03-28T12:31:47.037Z,5.40
2019-03-28T12:34:17.405Z,7.47
2019-03-28T12:36:47.860Z,7.57
2019-03-28T12:39:18.524Z,6.37
2019-03-28T12:41:48.814Z,10.03
2019-03-28T12:44:19.088Z,5.60
2019-03-28T12:46:51.065Z,4.07
2019-03-28T12:49:21.477Z,5.37
2019-03-28T12:51:52.622Z,6.63
2019-03-28T12:54:23.011Z,3.90
2019-03-28T12:56:53.444Z,4.37
2019-03-28T12:59:23.795Z,4.53
2019-03-28T13:01:55.286Z,4.63
2019-03-28T13:04:25.712Z,7.17
2019-03-28T13:06:56.221Z,4.40
2019-03-28T13:09:28.153Z,3.73
2019-03-28T13:11:58.696Z,4.53
2019-03-28T13:14:31.347Z,3.27
2019-03-28T13:17:01.045Z,3.33
2019-03-28T13:19:31.427Z,4.20
2019-03-28T13:22:02.418Z,2.70
2019-03-28T13:24:32.901Z,3.47
2019-03-28T13:27:04.016Z,3.17
2019-03-28T13:29:34.406Z,3.73
2019-03-28T13:32:04.956Z,4.77
2019-03-28T13:34:35.298Z,4.17
2019-03-28T13:37:05.553Z,2.43
2019-03-28T13:39:35.899Z,2.90
2019-03-28T13:42:06.157Z,4.23
2019-03-28T13:44:36.473Z,2.40
2019-03-28T13:47:06.854Z,2.43
2019-03-28T13:49:37.129Z,4.57
2019-03-28T13:52:07.871Z,2.50
2019-03-28T13:54:38.156Z,2.13
2019-03-28T13:57:08.789Z,3.23
2019-03-28T13:59:39.117Z,3.23
2019-03-28T14:02:09.354Z,5.13
2019-03-28T14:04:39.640Z,3.07
2019-03-28T14:07:09.864Z,3.47
2019-03-28T14:09:40.544Z,3.07
2019-03-28T14:12:10.859Z,3.73
2019-03-28T14:14:41.132Z,2.73
2019-03-28T14:17:11.365Z,3.27
2019-03-28T14:19:41.652Z,5.10
2019-03-28T14:22:11.979Z,3.03
2019-03-28T14:24:42.399Z,4.23
2019-03-28T14:27:12.665Z,2.67
2019-03-28T14:29:43.034Z,3.10
2019-03-28T14:32:13.299Z,3.80
2019-03-28T14:34:44.125Z,4.03
2019-03-28T14:37:16.955Z,3.03
2019-03-28T14:39:49.071Z,5.80
2019-03-28T14:42:19.941Z,2.83
2019-03-28T14:44:50.539Z,9.07
2019-03-28T14:47:21.764Z,3.63
2019-03-28T14:49:53.696Z,3.43
2019-03-28T14:52:25.005Z,3.87
2019-03-28T14:54:55.324Z,5.77
2019-03-28T14:57:26.492Z,6.87
2019-03-28T14:59:57.552Z,6.60
2019-03-28T15:02:27.791Z,6.57
2019-03-28T15:04:58.127Z,6.27
2019-03-28T15:07:28.419Z,3.17
2019-03-28T15:09:58.836Z,4.93
2019-03-28T15:12:29.063Z,4.37
2019-03-28T15:14:59.372Z,3.07
2019-03-28T15:17:29.790Z,3.13
2019-03-28T15:20:02.760Z,3.67
2019-03-28T15:22:33.089Z,5.17
2019-03-28T15:25:03.484Z,6.53
2019-03-28T15:27:33.780Z,5.53
2019-03-28T15:30:05.318Z,5.27
2019-03-28T15:32:36.626Z,4.47
2019-03-28T15:35:06.974Z,4.30
2019-03-28T15:37:37.349Z,3.33
2019-03-28T15:40:09.349Z,3.43
2019-03-28T15:42:39.658Z,5.07
2019-03-28T15:45:10.003Z,3.73
2019-03-28T15:47:40.343Z,5.73
2019-03-28T15:50:10.616Z,3.90
2019-03-28T15:52:41.002Z,3.23
2019-03-28T15:55:14.528Z,4.50
2019-03-28T15:57:43.587Z,4.97
2019-03-28T16:00:13.904Z,3.43
2019-03-28T16:02:44.154Z,6.53
2019-03-28T16:05:14.547Z,3.77
2019-03-28T16:07:44.984Z,3.07
2019-03-28T16:10:15.593Z,3.37
2019-03-28T16:12:45.912Z,4.37
2019-03-28T16:15:16.281Z,5.70
2019-03-28T16:17:47.535Z,3.83
2019-03-28T16:20:18.179Z,6.47
2019-03-28T16:22:48.448Z,3.47
2019-03-28T16:25:18.709Z,3.87
2019-03-28T16:27:49.095Z,3.70
2019-03-28T16:30:22.342Z,5.20
2019-03-28T16:32:52.610Z,2.80
2019-03-28T16:35:22.881Z,2.40
2019-03-28T16:37:53.778Z,2.80
2019-03-28T16:40:24.303Z,2.37
2019-03-28T16:42:54.679Z,3.37
2019-03-28T16:45:24.904Z,3.80
2019-03-28T16:47:56.212Z,6.90
2019-03-28T16:50:26.592Z,7.47
2019-03-28T16:52:57.729Z,3.13
2019-03-28T16:55:28.292Z,3.87
2019-03-28T16:57:58.769Z,2.60
2019-03-28T17:00:38.697Z,3.33
2019-03-28T17:03:09.046Z,3.10
2019-03-28T17:05:39.865Z,3.10
2019-03-28T17:08:10.187Z,3.40
2019-03-28T17:10:50.660Z,3.60
2019-03-28T17:13:20.986Z,4.40
2019-03-28T17:15:51.397Z,3.37
2019-03-28T17:18:21.776Z,3.93
2019-03-28T17:20:52.075Z,2.83
2019-03-28T17:23:22.405Z,2.30
2019-03-28T17:25:52.834Z,4.03
2019-03-28T17:28:23.164Z,3.47
2019-03-28T17:30:53.457Z,3.37
2019-03-28T17:33:25.718Z,2.53
2019-03-28T17:35:55.991Z,3.30
2019-03-28T17:38:26.606Z,2.73
2019-03-28T17:40:56.851Z,3.23
2019-03-28T17:43:27.161Z,3.90
2019-03-28T17:45:58.430Z,2.87
2019-03-28T17:48:30.893Z,3.23
2019-03-28T17:51:01.322Z,5.50
2019-03-28T17:53:31.607Z,3.33
2019-03-28T17:56:01.821Z,2.37
2019-03-28T17:58:32.103Z,3.30
2019-03-28T18:01:02.365Z,3.63
2019-03-28T18:03:32.601Z,4.07
2019-03-28T18:06:02.859Z,2.60
2019-03-28T18:08:33.182Z,5.07
2019-03-28T18:11:04.299Z,3.63
2019-03-28T18:13:34.602Z,3.90
2019-03-28T18:16:04.905Z,3.20
2019-03-28T18:18:36.157Z,2.73
2019-03-28T18:21:06.535Z,4.30
2019-03-28T18:23:36.781Z,2.87
2019-03-28T18:26:07.039Z,2.60
2019-03-28T18:28:37.290Z,2.47
2019-03-28T18:31:07.640Z,4.13
2019-03-28T18:33:39.005Z,4.27
2019-03-28T18:36:09.243Z,4.23
2019-03-28T18:38:39.501Z,2.73
2019-03-28T18:41:09.716Z,2.80
2019-03-28T18:43:40.006Z,3.90
2019-03-28T18:46:10.323Z,3.83
2019-03-28T18:48:40.552Z,2.97
2019-03-28T18:51:10.838Z,2.27
2019-03-28T18:53:41.173Z,3.83
2019-03-28T18:56:11.493Z,3.60
2019-03-28T18:58:41.741Z,3.00
2019-03-28T19:01:12.030Z,4.17
2019-03-28T19:03:42.278Z,5.33
2019-03-28T19:06:14.910Z,2.50
2019-03-28T19:08:44.431Z,3.03
2019-03-28T19:11:14.755Z,3.97
2019-03-28T19:13:45.165Z,3.20
2019-03-28T19:16:16.001Z,2.93
2019-03-28T19:18:46.481Z,4.37
2019-03-28T19:21:16.688Z,3.33
2019-03-28T19:23:46.959Z,4.10
2019-03-28T19:26:17.356Z,4.00
2019-03-28T19:28:47.605Z,2.90
2019-03-28T19:31:17.946Z,3.80
2019-03-28T19:33:48.294Z,3.90
2019-03-28T19:36:19.014Z,3.17
2019-03-28T19:38:49.442Z,3.20
2019-03-28T19:41:19.668Z,6.07
2019-03-28T19:43:50.079Z,3.60
2019-03-28T19:46:20.488Z,3.00
2019-03-28T19:48:50.730Z,2.47
2019-03-28T19:51:20.963Z,3.67
2019-03-28T19:53:51.184Z,2.63
2019-03-28T19:56:21.449Z,2.80
2019-03-28T19:58:51.710Z,2.97
2019-03-28T20:01:22.021Z,4.03
2019-03-28T20:03:52.580Z,4.30
2019-03-28T20:06:24.278Z,3.37
2019-03-28T20:08:54.894Z,5.70
2019-03-28T20:11:26.347Z,2.93
2019-03-28T20:13:57.717Z,3.30
2019-03-28T20:16:28.044Z,4.03
2019-03-28T20:18:58.322Z,2.80
2019-03-28T20:21:28.547Z,2.93
2019-03-28T20:23:58.738Z,4.17
2019-03-28T20:26:29.753Z,4.47
2019-03-28T20:29:00.404Z,3.33
2019-03-28T20:31:30.716Z,5.60
2019-03-28T20:34:01.057Z,4.07
2019-03-28T20:36:38.527Z,4.67
2019-03-28T20:39:07.121Z,2.73
2019-03-28T20:41:37.494Z,2.67
2019-03-28T20:44:07.847Z,3.23
2019-03-28T20:46:40.661Z,3.77
2019-03-28T20:49:09.960Z,7.13
2019-03-28T20:51:40.207Z,5.00
2019-03-28T20:54:10.520Z,5.13
2019-03-28T20:56:40.732Z,3.17
2019-03-28T20:59:10.942Z,3.67
2019-03-28T21:01:42.700Z,2.43
2019-03-28T21:04:13.146Z,2.93
2019-03-28T21:06:44.289Z,4.93
2019-03-28T21:09:14.565Z,3.13
2019-03-28T21:11:44.916Z,3.90
2019-03-28T21:14:15.153Z,2.93
2019-03-28T21:16:45.380Z,2.73
2019-03-28T21:19:15.702Z,3.40
2019-03-28T21:21:45.960Z,3.43
2019-03-28T21:24:16.237Z,3.20
2019-03-28T21:26:46.446Z,2.63
2019-03-28T21:29:16.835Z,6.07
2019-03-28T21:31:50.203Z,3.17
2019-03-28T21:34:19.068Z,3.70
2019-03-28T21:36:49.313Z,2.60
2019-03-28T21:39:19.531Z,2.70
2019-03-28T21:41:49.774Z,3.13
2019-03-28T21:44:20.000Z,2.60
2019-03-28T21:46:50.249Z,3.00
2019-03-28T21:49:20.492Z,2.63
2019-03-28T21:51:50.796Z,3.10
2019-03-28T21:54:21.015Z,3.83
2019-03-28T21:56:51.265Z,3.03
2019-03-28T21:59:22.829Z,3.17
2019-03-28T22:01:53.254Z,4.03
2019-03-28T22:04:23.535Z,3.37
2019-03-28T22:06:53.798Z,3.63
2019-03-28T22:09:24.758Z,4.50
2019-03-28T22:11:55.325Z,3.40
2019-03-28T22:14:25.595Z,3.50
2019-03-28T22:16:55.900Z,3.77
2019-03-28T22:19:26.306Z,3.33
2019-03-28T22:21:56.599Z,3.70
2019-03-28T22:24:26.870Z,4.20
2019-03-28T22:26:57.164Z,4.40
2019-03-28T22:29:27.434Z,4.23
2019-03-28T22:31:57.686Z,3.60
2019-03-28T22:34:27.899Z,4.53
2019-03-28T22:36:59.994Z,3.83
2019-03-28T22:39:30.151Z,3.43
2019-03-28T22:42:00.628Z,3.37
2019-03-28T22:44:33.710Z,7.73
2019-03-28T22:47:02.850Z,3.97
2019-03-28T22:49:33.114Z,5.57
2019-03-28T22:52:04.184Z,4.63
2019-03-28T22:54:34.542Z,5.80
2019-03-28T22:57:05.733Z,3.60
2019-03-28T22:59:37.078Z,5.70
2019-03-28T23:02:07.673Z,3.70
2019-03-28T23:04:39.026Z,3.43
2019-03-28T23:07:11.166Z,3.90
2019-03-28T23:09:41.294Z,6.73
2019-03-28T23:12:11.562Z,9.03
2019-03-28T23:14:41.807Z,12.20
2019-03-28T23:17:12.083Z,5.20
2019-03-28T23:19:42.347Z,4.33
2019-03-28T23:22:12.649Z,3.73
2019-03-28T23:24:43.959Z,5.47
2019-03-28T23:27:14.364Z,4.60
2019-03-28T23:29:44.715Z,6.00
2019-03-28T23:32:15.197Z,4.40
2019-03-28T23:34:45.557Z,4.57
2019-03-28T23:37:24.730Z,5.27
2019-03-28T23:39:47.835Z,3.80
2019-03-28T23:42:18.236Z,4.60
2019-03-28T23:44:48.491Z,5.23
2019-03-28T23:47:18.741Z,7.75
2019-03-28T23:49:49.248Z,7.87
2019-03-28T23:52:19.490Z,7.50
2019-03-28T23:54:49.834Z,5.77
2019-03-28T23:57:20.068Z,5.03
2019-03-28T23:59:50.306Z,11.30
